createdAt,value
2022-08-19T13:04:54.148Z,35.92
2022-08-19T13:07:20.847Z,36.29
2022-08-19T13:09:47.421Z,35.55
2022-08-19T13:12:14.429Z,35.04
2022-08-19T13:14:41.515Z,34.54
2022-08-19T13:17:09.293Z,33.05
2022-08-19T13:19:37.776Z,31.80
2022-08-19T13:22:04.478Z,31.18
2022-08-19T13:24:41.118Z,33.08
2022-08-19T13:27:10.560Z,34.36
2022-08-19T13:29:55.573Z,33.09
2022-08-19T13:32:40.598Z,33.09
2022-08-19T13:35:09.965Z,31.89
2022-08-19T13:37:44.565Z,31.67
2022-08-19T13:40:16.629Z,32.20
2022-08-19T13:42:44.953Z,32.40
2022-08-19T13:45:12.617Z,32.98
2022-08-19T13:47:45.853Z,31.33
2022-08-19T13:50:18.491Z,34.04
2022-08-19T13:52:45.685Z,32.69
2022-08-19T13:55:13.252Z,29.85
2022-08-19T13:57:40.171Z,31.00
2022-08-19T14:00:11.587Z,33.30
2022-08-19T14:02:40.018Z,29.18
2022-08-19T14:05:12.252Z,29.34
2022-08-19T14:07:38.941Z,30.93
2022-08-19T14:10:07.051Z,30.45
2022-08-19T14:12:34.118Z,31.28
2022-08-19T14:15:02.185Z,31.11
2022-08-19T14:17:29.783Z,30.97
2022-08-19T14:20:10.499Z,29.74
2022-08-19T14:22:39.588Z,30.59
2022-08-19T14:25:09.014Z,29.89
2022-08-19T14:27:36.809Z,30.64
2022-08-19T14:30:08.481Z,32.89
2022-08-19T14:32:35.812Z,32.41
2022-08-19T14:35:03.258Z,31.48
2022-08-19T14:37:29.987Z,31.91
2022-08-19T14:39:56.628Z,31.80
2022-08-19T14:42:23.289Z,33.34
2022-08-19T14:44:49.894Z,33.21
2022-08-19T14:47:16.540Z,31.88
2022-08-19T14:49:48.299Z,29.40
2022-08-19T14:52:15.363Z,30.84
2022-08-19T14:54:41.839Z,33.61
2022-08-19T14:57:08.477Z,30.91
2022-08-19T14:59:36.057Z,30.06
2022-08-19T15:02:33.620Z,31.30
2022-08-19T15:04:58.062Z,32.45
2022-08-19T15:07:25.692Z,31.48
2022-08-19T15:09:56.116Z,31.08
2022-08-19T15:12:23.577Z,29.94
2022-08-19T15:14:56.177Z,32.19
2022-08-19T15:17:43.756Z,32.48
2022-08-19T15:20:13.513Z,34.14
2022-08-19T15:22:41.003Z,32.28
2022-08-19T15:25:09.990Z,31.97
2022-08-19T15:27:39.724Z,34.34
2022-08-19T15:30:09.390Z,32.00
2022-08-19T15:32:37.373Z,32.16
2022-08-19T15:35:06.506Z,30.65
2022-08-19T15:37:37.144Z,30.64
2022-08-19T15:40:06.124Z,38.44
2022-08-19T15:42:33.125Z,35.40
2022-08-19T15:45:00.530Z,36.25
2022-08-19T15:47:34.741Z,35.64
2022-08-19T15:50:10.519Z,36.59
2022-08-19T15:52:58.193Z,36.95
2022-08-19T15:55:33.064Z,37.00
2022-08-19T15:58:28.251Z,35.28
2022-08-19T16:01:20.730Z,34.23
2022-08-19T16:04:13.758Z,33.95
2022-08-19T16:06:44.193Z,33.23
2022-08-19T16:09:10.925Z,35.06
2022-08-19T16:11:39.642Z,37.27
2022-08-19T16:14:09.535Z,36.90
2022-08-19T16:16:37.850Z,36.99
2022-08-19T16:19:12.210Z,41.42
2022-08-19T16:21:41.755Z,43.54
2022-08-19T16:24:13.181Z,42.52
2022-08-19T16:26:41.589Z,44.72
2022-08-19T16:29:13.000Z,45.54
2022-08-19T16:31:41.668Z,45.11
2022-08-19T16:34:08.465Z,44.24
2022-08-19T16:36:34.980Z,45.55
2022-08-19T16:39:02.132Z,45.54
2022-08-19T16:41:29.254Z,46.14
2022-08-19T16:43:56.105Z,44.96
2022-08-19T16:46:23.472Z,46.53
2022-08-19T16:48:54.101Z,47.50
2022-08-19T16:51:22.847Z,48.45
2022-08-19T16:53:52.745Z,48.65
2022-08-19T16:56:20.410Z,49.40
2022-08-19T16:58:47.753Z,49.32
2022-08-19T17:01:14.594Z,49.93
2022-08-19T17:03:41.250Z,49.79
2022-08-19T17:06:15.867Z,51.00
2022-08-19T17:08:48.805Z,49.69
2022-08-19T17:11:18.453Z,50.19
2022-08-19T17:13:47.901Z,52.60
2022-08-19T17:16:16.410Z,54.24
2022-08-19T17:18:43.178Z,54.45
2022-08-19T17:21:09.813Z,52.80
2022-08-19T17:23:36.733Z,52.89
2022-08-19T17:26:16.957Z,57.49
2022-08-19T17:28:50.177Z,55.79
2022-08-19T17:31:18.862Z,57.42
2022-08-19T17:33:48.097Z,58.87
2022-08-19T17:36:17.625Z,57.16
2022-08-19T17:38:44.955Z,56.11
2022-08-19T17:41:11.712Z,55.40
2022-08-19T17:43:43.132Z,57.36
2022-08-19T17:46:20.561Z,56.68
2022-08-19T17:48:52.897Z,59.42
2022-08-19T17:51:22.509Z,55.37
2022-08-19T17:53:51.087Z,59.28
2022-08-19T17:56:18.473Z,63.22
2022-08-19T17:58:51.126Z,59.74
2022-08-19T18:01:30.108Z,59.45
2022-08-19T18:04:12.203Z,57.90
2022-08-19T18:06:41.728Z,57.43
2022-08-19T18:09:20.659Z,60.23
2022-08-19T18:11:52.553Z,63.28
2022-08-19T18:14:20.518Z,63.07
2022-08-19T18:16:47.340Z,61.12
2022-08-19T18:19:13.963Z,64.19
2022-08-19T18:21:40.873Z,61.11
2022-08-19T18:24:08.070Z,63.96
2022-08-19T18:26:37.866Z,62.48
2022-08-19T18:29:04.474Z,61.52
2022-08-19T18:31:31.191Z,61.87
2022-08-19T18:33:58.118Z,60.40
2022-08-19T18:36:51.945Z,60.95
2022-08-19T18:39:30.084Z,61.16
2022-08-19T18:42:15.118Z,61.04
2022-08-19T18:45:00.420Z,62.08
2022-08-19T18:47:45.777Z,61.19
2022-08-19T18:50:13.812Z,66.25
2022-08-19T18:52:40.649Z,67.74
2022-08-19T18:55:07.941Z,65.20
2022-08-19T18:57:34.557Z,67.85
2022-08-19T19:00:02.752Z,65.66
2022-08-19T19:02:29.431Z,65.66
2022-08-19T19:04:56.193Z,67.35
2022-08-19T19:07:23.417Z,63.46
2022-08-19T19:09:51.267Z,68.52
2022-08-19T19:12:18.329Z,67.93
2022-08-19T19:14:49.406Z,70.47
2022-08-19T19:17:16.865Z,72.93
2022-08-19T19:19:44.119Z,74.32
2022-08-19T19:22:18.031Z,74.45
2022-08-19T19:24:45.207Z,72.88
2022-08-19T19:27:13.097Z,72.43
2022-08-19T19:29:40.700Z,69.35
2022-08-19T19:32:09.775Z,71.51
2022-08-19T19:34:40.202Z,72.21
2022-08-19T19:37:06.879Z,72.90
2022-08-19T19:39:46.092Z,71.88
2022-08-19T19:42:20.066Z,72.87
2022-08-19T19:44:50.782Z,72.85
2022-08-19T19:47:19.054Z,75.21
2022-08-19T19:50:12.680Z,74.85
2022-08-19T19:52:33.668Z,75.48
2022-08-19T19:55:01.402Z,74.68
2022-08-19T19:57:29.437Z,75.59
2022-08-19T19:59:56.655Z,76.79
2022-08-19T20:02:25.211Z,75.29
2022-08-19T20:04:52.226Z,74.83
2022-08-19T20:07:38.880Z,74.72
2022-08-19T20:10:05.949Z,74.47
2022-08-19T20:12:32.557Z,74.29
2022-08-19T20:14:59.175Z,75.53
2022-08-19T20:17:25.842Z,75.66
2022-08-19T20:19:53.563Z,75.80
2022-08-19T20:22:20.199Z,76.00
2022-08-19T20:24:48.426Z,77.55
2022-08-19T20:27:15.080Z,78.18
2022-08-19T20:29:44.268Z,77.43
2022-08-19T20:32:13.264Z,72.88
2022-08-19T20:34:40.925Z,75.20
2022-08-19T20:37:09.452Z,79.15
2022-08-19T20:39:36.808Z,80.03
2022-08-19T20:42:03.655Z,83.07
2022-08-19T20:44:30.271Z,82.90
2022-08-19T20:47:00.527Z,83.98
2022-08-19T20:49:29.853Z,82.44
2022-08-19T20:51:57.036Z,80.23
2022-08-19T20:54:24.251Z,79.79
2022-08-19T20:56:51.806Z,81.69
2022-08-19T20:59:20.161Z,79.14
2022-08-19T21:01:47.444Z,78.06
2022-08-19T21:04:14.629Z,77.34
2022-08-19T21:06:42.231Z,77.54
2022-08-19T21:09:12.051Z,77.79
2022-08-19T21:11:39.093Z,77.93
2022-08-19T21:14:06.048Z,79.06
2022-08-19T21:16:33.869Z,77.67
2022-08-19T21:19:00.884Z,79.19
2022-08-19T21:21:27.734Z,79.17
2022-08-19T21:23:54.454Z,83.41
2022-08-19T21:26:21.136Z,83.59
2022-08-19T21:28:47.768Z,83.48
2022-08-19T21:31:17.807Z,81.10
2022-08-19T21:33:45.069Z,81.17
2022-08-19T21:36:11.767Z,80.81
2022-08-19T21:38:38.413Z,80.73
2022-08-19T21:41:06.469Z,81.75
2022-08-19T21:43:34.880Z,82.13
2022-08-19T21:46:01.841Z,81.62
2022-08-19T21:48:28.864Z,80.85
2022-08-19T21:50:55.520Z,80.78
2022-08-19T21:53:22.852Z,80.14
2022-08-19T21:55:53.579Z,79.89
2022-08-19T21:58:30.035Z,80.13
2022-08-19T22:00:58.589Z,80.78
2022-08-19T22:03:25.930Z,81.25
2022-08-19T22:05:52.766Z,80.67
2022-08-19T22:08:19.418Z,81.84
2022-08-19T22:10:46.633Z,81.08
2022-08-19T22:13:13.508Z,80.26
2022-08-19T22:15:41.064Z,81.80
2022-08-19T22:18:07.655Z,82.20
2022-08-19T22:20:34.339Z,83.55
2022-08-19T22:23:03.521Z,82.62
2022-08-19T22:25:35.992Z,83.17
2022-08-19T22:28:05.964Z,82.62
2022-08-19T22:30:34.830Z,81.94
2022-08-19T22:33:07.002Z,82.39
2022-08-19T22:35:37.579Z,82.73
2022-08-19T22:38:07.178Z,82.72
2022-08-19T22:40:36.727Z,82.45
2022-08-19T22:43:17.135Z,84.46
2022-08-19T22:45:44.742Z,86.05
2022-08-19T22:48:14.067Z,85.38
2022-08-19T22:50:43.084Z,83.79
2022-08-19T22:53:10.338Z,85.92
2022-08-19T22:55:38.198Z,87.35
2022-08-19T22:58:05.599Z,88.66
2022-08-19T23:00:33.584Z,86.81
2022-08-19T23:03:01.599Z,85.42
2022-08-19T23:05:29.561Z,81.88
2022-08-19T23:07:58.024Z,82.42
2022-08-19T23:10:28.000Z,82.15
2022-08-19T23:12:57.876Z,83.92
2022-08-19T23:15:27.570Z,84.22
2022-08-19T23:17:57.509Z,85.44
2022-08-19T23:20:27.282Z,85.68
2022-08-19T23:22:55.367Z,86.27
2022-08-19T23:25:25.469Z,86.86
2022-08-19T23:28:10.570Z,85.97
2022-08-19T23:30:40.991Z,84.81
2022-08-19T23:33:18.619Z,84.30
2022-08-19T23:35:45.194Z,83.63
2022-08-19T23:38:11.821Z,84.62
2022-08-19T23:40:39.368Z,84.69
2022-08-19T23:43:07.958Z,83.82
2022-08-19T23:45:41.087Z,86.93
2022-08-19T23:48:17.793Z,84.94
2022-08-19T23:50:45.779Z,85.19
2022-08-19T23:53:13.374Z,84.50
2022-08-19T23:55:42.883Z,83.76
2022-08-19T23:58:10.600Z,82.88
